Time;durP1;ratioP1;P1;durP2;ratioP2;P2;SDS_P1;SDS_P2;PMS_P1;PMS_P2;Temp;Humidity;BMP_temperature;BMP_pressure;BME280_temperature;BME280_humidity;BME280_pressure;Samples;Min_cycle;Max_cycle;Signal;HPM_P1;HPM_P2
2023/08/06 00:00:45;;;;;;;11.23;7.77;;;14.20;99.90;;;;;;5048211;28;20220;-79
2023/08/06 00:03:13;;;;;;;8.27;7.47;;;14.20;99.90;;;;;;5034949;28;20675;-78
2023/08/06 00:05:44;;;;;;;9.30;7.53;;;14.20;99.90;;;;;;5035366;28;20208;-78
2023/08/06 00:08:12;;;;;;;7.67;6.87;;;14.20;99.90;;;;;;5036368;28;20285;-77
2023/08/06 00:10:41;;;;;;;10.63;7.80;;;14.20;99.90;;;;;;5055139;28;20208;-80
2023/08/06 00:13:09;;;;;;;10.87;8.17;;;14.20;99.90;;;;;;5054681;28;20219;-79
2023/08/06 00:15:37;;;;;;;9.77;8.23;;;14.20;99.90;;;;;;5054766;28;20216;-78
2023/08/06 00:18:05;;;;;;;10.37;7.30;;;14.20;99.90;;;;;;5052564;28;20211;-77
2023/08/06 00:20:34;;;;;;;8.27;7.20;;;14.20;99.90;;;;;;5034901;28;20228;-79
2023/08/06 00:23:03;;;;;;;8.40;7.33;;;14.20;99.90;;;;;;5039129;28;20204;-77
2023/08/06 00:25:31;;;;;;;7.03;6.33;;;14.20;99.90;;;;;;5054297;28;20686;-77
2023/08/06 00:27:59;;;;;;;7.10;6.07;;;14.20;99.90;;;;;;5053129;28;20223;-79
2023/08/06 00:30:28;;;;;;;7.90;6.77;;;14.20;99.90;;;;;;5054529;28;20219;-77
2023/08/06 00:32:56;;;;;;;10.17;6.40;;;14.20;99.90;;;;;;5054937;28;20219;-76
2023/08/06 00:35:24;;;;;;;6.70;5.97;;;14.30;99.90;;;;;;5054330;28;20212;-78
2023/08/06 00:37:52;;;;;;;7.57;5.80;;;14.30;99.90;;;;;;5037178;28;20278;-78
2023/08/06 00:40:23;;;;;;;6.80;5.83;;;14.30;99.90;;;;;;5034074;28;20213;-77
2023/08/06 00:42:51;;;;;;;6.30;5.70;;;14.30;99.90;;;;;;5034015;28;20209;-77
2023/08/06 00:45:19;;;;;;;8.30;5.93;;;14.30;99.90;;;;;;5034210;28;20627;-76
2023/08/06 00:47:48;;;;;;;7.57;5.80;;;14.30;99.90;;;;;;5033860;28;20224;-79
2023/08/06 00:50:17;;;;;;;8.97;6.17;;;14.30;99.90;;;;;;5034066;28;20209;-77
2023/08/06 00:52:45;;;;;;;8.07;6.40;;;14.40;99.90;;;;;;5033907;28;20205;-77
2023/08/06 00:55:13;;;;;;;7.27;6.17;;;14.40;99.90;;;;;;5034161;28;20208;-76
2023/08/06 00:57:43;;;;;;;9.13;6.17;;;14.40;99.90;;;;;;5034076;28;20205;-76
2023/08/06 01:00:12;;;;;;;8.63;6.33;;;14.40;99.90;;;;;;5034054;28;20533;-76
2023/08/06 01:02:40;;;;;;;7.77;6.10;;;14.30;99.90;;;;;;5033977;28;20216;-78
2023/08/06 01:05:09;;;;;;;7.17;6.20;;;14.40;99.90;;;;;;5033852;28;20253;-75
2023/08/06 01:07:52;;;;;;;9.07;6.83;;;14.30;99.90;;;;;;5033603;28;20651;-77
2023/08/06 01:10:33;;;;;;;8.07;6.47;;;14.30;99.90;;;;;;5032574;28;20205;-76
2023/08/06 01:13:17;;;;;;;9.93;6.90;;;14.30;99.90;;;;;;5033517;28;20189;-75
2023/08/06 01:15:48;;;;;;;8.37;7.07;;;14.30;99.90;;;;;;5033696;28;20204;-78
2023/08/06 01:18:16;;;;;;;8.50;6.93;;;14.30;99.90;;;;;;5033464;28;20197;-77
2023/08/06 01:20:46;;;;;;;8.03;6.80;;;14.30;99.90;;;;;;5033470;28;20212;-77
2023/08/06 01:23:14;;;;;;;10.53;7.70;;;14.30;99.90;;;;;;5051175;28;20270;-78
2023/08/06 01:25:54;;;;;;;9.47;7.47;;;14.30;99.90;;;;;;5053342;28;20232;-75
2023/08/06 01:28:28;;;;;;;10.93;7.30;;;14.20;99.90;;;;;;5040697;28;20229;-79
2023/08/06 01:31:02;;;;;;;8.97;7.17;;;14.20;99.90;;;;;;5033491;28;20693;-75
2023/08/06 01:33:33;;;;;;;8.93;7.70;;;14.20;99.90;;;;;;5033063;28;20221;-78
2023/08/06 01:36:04;;;;;;;8.60;7.30;;;14.20;99.90;;;;;;5033617;28;20223;-78
2023/08/06 01:38:32;;;;;;;8.50;7.30;;;14.20;99.90;;;;;;5033465;28;20205;-75
2023/08/06 01:41:00;;;;;;;9.30;7.17;;;14.20;99.90;;;;;;5033525;28;20229;-78
2023/08/06 01:43:28;;;;;;;7.27;6.00;;;14.20;99.90;;;;;;5032617;28;20679;-77
2023/08/06 01:45:56;;;;;;;6.13;5.53;;;14.10;99.90;;;;;;5033848;28;20208;-78
2023/08/06 01:48:25;;;;;;;6.40;5.80;;;14.10;99.90;;;;;;5032998;28;20232;-76
2023/08/06 01:50:53;;;;;;;10.57;6.20;;;14.00;99.90;;;;;;5033120;28;20220;-77
2023/08/06 01:53:22;;;;;;;6.13;5.20;;;13.90;99.90;;;;;;5033061;28;20209;-77
2023/08/06 01:55:51;;;;;;;5.57;4.83;;;13.90;99.90;;;;;;5032966;28;20220;-78
2023/08/06 01:58:19;;;;;;;5.13;4.63;;;13.90;99.90;;;;;;5033219;28;20225;-77
2023/08/06 02:00:47;;;;;;;6.87;5.33;;;13.80;99.90;;;;;;5033228;28;20213;-77
2023/08/06 02:03:15;;;;;;;6.97;5.20;;;13.80;99.90;;;;;;5032542;28;20248;-78
2023/08/06 02:05:43;;;;;;;4.97;4.40;;;13.80;99.90;;;;;;5036520;28;20660;-77
2023/08/06 02:08:12;;;;;;;6.67;4.50;;;13.70;99.90;;;;;;5032915;28;20232;-79
2023/08/06 02:10:41;;;;;;;5.40;4.50;;;13.70;99.90;;;;;;5032672;28;20721;-77
2023/08/06 02:13:09;;;;;;;6.23;4.57;;;13.70;99.90;;;;;;5032688;28;20573;-77
2023/08/06 02:15:43;;;;;;;7.93;4.33;;;13.60;99.90;;;;;;5033015;28;20212;-77
2023/08/06 02:18:11;;;;;;;6.83;4.40;;;13.60;99.90;;;;;;5033123;28;20200;-75
2023/08/06 02:20:40;;;;;;;7.70;4.57;;;13.60;99.90;;;;;;5037358;28;20295;-76
2023/08/06 02:23:08;;;;;;;7.73;4.77;;;13.60;99.90;;;;;;5032410;28;20266;-75
2023/08/06 02:25:36;;;;;;;6.03;4.77;;;13.60;99.90;;;;;;5032838;28;20211;-76
2023/08/06 02:28:06;;;;;;;5.03;4.53;;;13.50;99.90;;;;;;5032611;28;20209;-75
2023/08/06 02:30:34;;;;;;;5.77;4.50;;;13.50;99.90;;;;;;5032588;28;20209;-79
2023/08/06 02:33:02;;;;;;;5.77;4.80;;;13.50;99.90;;;;;;5032467;28;20209;-80
2023/08/06 02:35:30;;;;;;;5.47;4.87;;;13.40;99.90;;;;;;5032455;28;20213;-78
2023/08/06 02:37:58;;;;;;;7.80;5.30;;;13.40;99.90;;;;;;5032457;28;20211;-78
2023/08/06 02:40:26;;;;;;;6.87;5.10;;;13.40;99.90;;;;;;5032439;28;20255;-77
2023/08/06 02:42:54;;;;;;;5.53;4.93;;;13.40;99.90;;;;;;5032054;28;20270;-78
2023/08/06 02:45:24;;;;;;;5.47;4.87;;;13.40;99.90;;;;;;5032097;28;20255;-78
2023/08/06 02:47:52;;;;;;;8.43;5.30;;;13.40;99.90;;;;;;5032308;28;20236;-77
2023/08/06 02:50:20;;;;;;;7.20;5.50;;;13.40;99.90;;;;;;5032294;28;20279;-77
2023/08/06 02:52:50;;;;;;;8.90;5.37;;;13.30;99.90;;;;;;5034467;28;20205;-74
2023/08/06 02:55:18;;;;;;;10.53;6.10;;;13.40;99.90;;;;;;5046146;28;20291;-74
2023/08/06 02:57:46;;;;;;;7.93;5.50;;;13.30;99.90;;;;;;5051978;28;21578;-77
2023/08/06 03:00:14;;;;;;;6.07;5.23;;;13.30;99.90;;;;;;5052390;28;20203;-75
2023/08/06 03:02:44;;;;;;;6.70;5.47;;;13.40;99.90;;;;;;5050767;28;20650;-76
2023/08/06 03:05:12;;;;;;;8.10;5.17;;;13.40;99.90;;;;;;5051731;28;20228;-74
2023/08/06 03:07:40;;;;;;;7.90;5.30;;;13.30;99.90;;;;;;5049000;28;20558;-76
2023/08/06 03:10:09;;;;;;;6.40;5.00;;;13.30;99.90;;;;;;5049041;28;20232;-79
2023/08/06 03:12:37;;;;;;;7.47;5.63;;;13.30;99.90;;;;;;5051146;28;20200;-74
2023/08/06 03:15:06;;;;;;;6.47;4.90;;;13.30;99.90;;;;;;5051778;28;20701;-77
2023/08/06 03:17:34;;;;;;;9.57;5.80;;;13.30;99.90;;;;;;5051546;28;20282;-76
2023/08/06 03:20:06;;;;;;;7.13;5.43;;;13.30;99.90;;;;;;5051587;28;20239;-77
2023/08/06 03:22:35;;;;;;;7.23;6.03;;;13.30;99.90;;;;;;5051156;28;20196;-76
2023/08/06 03:25:03;;;;;;;7.67;6.27;;;13.20;99.90;;;;;;5051509;28;20204;-78
2023/08/06 03:27:31;;;;;;;7.90;5.67;;;13.20;99.90;;;;;;5050855;28;20223;-77
2023/08/06 03:30:00;;;;;;;7.17;5.70;;;13.20;99.90;;;;;;5051124;28;20685;-77
2023/08/06 03:32:29;;;;;;;6.50;5.27;;;13.20;99.90;;;;;;5052150;28;20212;-79
2023/08/06 03:34:57;;;;;;;7.13;5.50;;;13.20;99.90;;;;;;5046768;28;20556;-76
2023/08/06 03:37:26;;;;;;;6.70;6.00;;;13.20;99.90;;;;;;5035838;28;20208;-78
2023/08/06 03:39:54;;;;;;;6.50;5.80;;;13.20;99.90;;;;;;5035958;28;20263;-78
2023/08/06 03:42:22;;;;;;;6.80;5.53;;;13.10;99.90;;;;;;5039479;28;20208;-76
2023/08/06 03:44:51;;;;;;;7.03;5.20;;;13.10;99.90;;;;;;5055657;28;20216;-79
2023/08/06 03:47:19;;;;;;;7.17;5.37;;;13.10;99.90;;;;;;5055755;28;20570;-78
2023/08/06 03:49:47;;;;;;;7.30;5.80;;;13.10;99.90;;;;;;5055246;28;20243;-79
2023/08/06 03:52:15;;;;;;;7.40;5.60;;;13.00;99.90;;;;;;5034750;28;20291;-80
2023/08/06 03:54:44;;;;;;;6.17;5.57;;;13.00;99.90;;;;;;5035410;28;20664;-79
2023/08/06 03:57:13;;;;;;;7.53;5.80;;;13.00;99.90;;;;;;5035127;28;20663;-78
2023/08/06 03:59:41;;;;;;;7.33;4.80;;;13.00;99.90;;;;;;5035451;28;20228;-78
2023/08/06 04:02:10;;;;;;;8.00;5.00;;;13.00;99.90;;;;;;5035218;28;20212;-78
2023/08/06 04:04:38;;;;;;;7.07;5.27;;;13.00;99.90;;;;;;5035429;28;20209;-77
2023/08/06 04:07:06;;;;;;;7.47;4.93;;;13.00;99.90;;;;;;5035043;28;20278;-78
2023/08/06 04:09:36;;;;;;;6.83;5.00;;;13.00;99.90;;;;;;5034376;28;20231;-77
2023/08/06 04:12:08;;;;;;;6.20;5.23;;;12.90;99.90;;;;;;5034395;28;20212;-77
2023/08/06 04:14:36;;;;;;;6.40;5.03;;;12.90;99.90;;;;;;5034730;28;20201;-77
2023/08/06 04:17:04;;;;;;;6.30;4.80;;;13.00;99.90;;;;;;5036653;28;20231;-77
2023/08/06 04:19:32;;;;;;;6.23;4.50;;;12.90;99.90;;;;;;5042389;28;20213;-79
2023/08/06 04:22:01;;;;;;;6.37;4.30;;;12.90;99.90;;;;;;5034239;28;20213;-78
2023/08/06 04:24:29;;;;;;;5.70;4.87;;;12.90;99.90;;;;;;5034892;28;20275;-77
2023/08/06 04:26:57;;;;;;;6.00;4.77;;;12.90;99.90;;;;;;5034802;28;20209;-78
2023/08/06 04:29:26;;;;;;;6.33;4.60;;;12.90;99.90;;;;;;5034341;28;20224;-75
2023/08/06 04:31:54;;;;;;;5.73;4.90;;;12.90;99.90;;;;;;5034418;28;20213;-79
2023/08/06 04:34:22;;;;;;;6.43;4.57;;;12.90;99.90;;;;;;5034308;28;20687;-78
2023/08/06 04:36:50;;;;;;;6.03;4.50;;;12.90;99.90;;;;;;5034375;28;20217;-78
2023/08/06 04:39:19;;;;;;;6.67;4.60;;;13.00;99.90;;;;;;5034303;28;20578;-79
2023/08/06 04:41:47;;;;;;;6.67;4.33;;;13.00;99.90;;;;;;5034050;28;20213;-78
2023/08/06 04:44:15;;;;;;;7.20;4.30;;;13.00;99.90;;;;;;5033195;28;20258;-77
2023/08/06 04:46:44;;;;;;;5.03;4.17;;;13.00;99.90;;;;;;5034188;28;20228;-78
2023/08/06 04:49:12;;;;;;;4.40;4.00;;;13.10;99.90;;;;;;5034422;28;20209;-78
2023/08/06 04:51:40;;;;;;;4.87;3.90;;;13.10;99.90;;;;;;5033836;28;20736;-79
2023/08/06 04:54:09;;;;;;;8.90;4.53;;;13.20;99.90;;;;;;5034051;28;20617;-78
2023/08/06 04:56:37;;;;;;;6.60;3.80;;;13.10;99.90;;;;;;5033783;28;20209;-77
2023/08/06 04:59:05;;;;;;;5.77;4.00;;;13.10;99.90;;;;;;5033938;28;20264;-78
2023/08/06 05:01:33;;;;;;;4.97;4.03;;;13.10;99.90;;;;;;5033868;28;20205;-78
2023/08/06 05:04:03;;;;;;;5.23;3.67;;;13.00;99.90;;;;;;5033401;28;20675;-77
2023/08/06 05:06:31;;;;;;;5.50;4.00;;;13.00;99.90;;;;;;5033661;28;20223;-78
2023/08/06 05:08:59;;;;;;;4.97;3.53;;;13.00;99.90;;;;;;5033820;28;20690;-76
2023/08/06 05:11:28;;;;;;;4.93;3.60;;;13.00;99.90;;;;;;5033524;28;20228;-76
2023/08/06 05:13:56;;;;;;;5.27;3.50;;;13.10;99.90;;;;;;5033464;28;20216;-78
2023/08/06 05:16:25;;;;;;;4.97;3.30;;;13.10;99.90;;;;;;5041586;28;20256;-77
2023/08/06 05:18:53;;;;;;;4.90;3.50;;;13.20;99.90;;;;;;5033778;28;20655;-77
2023/08/06 05:21:23;;;;;;;4.33;3.33;;;13.30;99.90;;;;;;5033593;28;20212;-78
2023/08/06 05:23:51;;;;;;;5.13;3.43;;;13.40;99.90;;;;;;5033618;28;20216;-79
2023/08/06 05:26:19;;;;;;;5.47;2.80;;;13.50;99.90;;;;;;5034039;28;20508;-76
2023/08/06 05:28:47;;;;;;;4.90;3.03;;;13.60;99.90;;;;;;5033654;28;20204;-78
2023/08/06 05:31:15;;;;;;;3.63;2.70;;;13.70;99.90;;;;;;5033793;28;20581;-77
2023/08/06 05:33:43;;;;;;;4.03;2.77;;;13.80;99.90;;;;;;5032859;28;20714;-77
2023/08/06 05:36:12;;;;;;;3.93;2.57;;;13.90;99.90;;;;;;5035962;28;20675;-78
2023/08/06 05:38:41;;;;;;;3.70;2.70;;;14.00;99.90;;;;;;5052468;28;20607;-79
2023/08/06 05:41:09;;;;;;;3.63;2.70;;;14.00;99.90;;;;;;5053455;28;20214;-78
2023/08/06 05:43:37;;;;;;;3.57;2.40;;;14.10;99.90;;;;;;5034506;28;20616;-77
2023/08/06 05:46:05;;;;;;;2.80;2.40;;;14.20;99.90;;;;;;5032909;28;20212;-79
2023/08/06 05:48:33;;;;;;;5.47;2.60;;;14.20;99.90;;;;;;5032842;28;20243;-79
2023/08/06 05:51:01;;;;;;;3.63;2.67;;;14.20;99.90;;;;;;5032853;28;20237;-76
2023/08/06 05:53:30;;;;;;;4.47;2.40;;;14.30;99.90;;;;;;5032589;28;20209;-78
2023/08/06 05:55:59;;;;;;;3.70;2.50;;;14.30;99.90;;;;;;5033114;28;20607;-78
2023/08/06 05:58:29;;;;;;;3.37;2.17;;;14.30;99.90;;;;;;5032755;28;20681;-75
2023/08/06 06:00:57;;;;;;;4.30;2.13;;;14.30;99.90;;;;;;5032412;28;20205;-76
2023/08/06 06:03:25;;;;;;;4.17;2.30;;;14.40;99.90;;;;;;5032566;28;20201;-77
2023/08/06 06:05:53;;;;;;;4.70;2.33;;;14.50;99.90;;;;;;5032544;28;20208;-78
2023/08/06 06:08:21;;;;;;;4.03;2.33;;;14.50;99.90;;;;;;5032666;28;20212;-78
2023/08/06 06:10:49;;;;;;;3.40;2.40;;;14.50;99.90;;;;;;5047430;28;20740;-77
2023/08/06 06:13:19;;;;;;;5.03;2.23;;;14.50;99.90;;;;;;5052339;28;20208;-78
2023/08/06 06:15:48;;;;;;;4.87;2.50;;;14.50;99.90;;;;;;5052417;28;20303;-79
2023/08/06 06:18:16;;;;;;;3.50;2.40;;;14.40;99.90;;;;;;5038887;28;20353;-77
2023/08/06 06:20:44;;;;;;;4.07;2.40;;;14.30;99.90;;;;;;5032508;28;20216;-77
2023/08/06 06:23:12;;;;;;;2.97;2.40;;;14.30;99.90;;;;;;5032138;28;20307;-76
2023/08/06 06:25:44;;;;;;;2.67;2.47;;;14.30;99.90;;;;;;5032341;28;20213;-78
2023/08/06 06:28:12;;;;;;;3.50;2.50;;;14.20;99.90;;;;;;5032463;28;20200;-77
2023/08/06 06:30:42;;;;;;;3.67;2.80;;;14.20;99.90;;;;;;5032182;28;20225;-77
2023/08/06 06:33:10;;;;;;;2.67;2.43;;;14.10;99.90;;;;;;5035908;28;20542;-77
2023/08/06 06:35:39;;;;;;;3.30;2.60;;;14.10;99.90;;;;;;5052217;28;20213;-77
2023/08/06 06:38:07;;;;;;;5.17;2.50;;;14.10;99.90;;;;;;5052410;28;20203;-78
2023/08/06 06:40:35;;;;;;;2.60;2.27;;;14.00;99.90;;;;;;5048814;28;20212;-78
2023/08/06 06:43:03;;;;;;;3.27;2.40;;;14.10;99.90;;;;;;5031801;28;20225;-77
2023/08/06 06:45:31;;;;;;;3.10;2.60;;;14.10;99.90;;;;;;5031872;28;20671;-77
2023/08/06 06:48:00;;;;;;;4.13;2.17;;;14.00;99.90;;;;;;5032159;28;20228;-79
2023/08/06 06:50:29;;;;;;;5.60;2.30;;;14.10;99.90;;;;;;5031994;28;20244;-77
2023/08/06 06:52:57;;;;;;;4.03;2.20;;;14.20;99.90;;;;;;5032124;28;20212;-77
2023/08/06 06:55:25;;;;;;;4.90;2.40;;;14.40;99.90;;;;;;5032272;28;20211;-76
2023/08/06 06:57:53;;;;;;;4.23;2.50;;;14.50;99.90;;;;;;5032571;28;20593;-77
2023/08/06 07:00:21;;;;;;;3.63;1.87;;;14.70;99.90;;;;;;5031965;28;20667;-77
2023/08/06 07:02:49;;;;;;;3.57;2.07;;;14.80;99.90;;;;;;5031635;28;20319;-76
2023/08/06 07:05:19;;;;;;;2.90;2.03;;;14.90;99.90;;;;;;5032220;28;20283;-78
2023/08/06 07:07:47;;;;;;;2.20;2.00;;;15.00;99.90;;;;;;5033587;28;20334;-77
2023/08/06 07:10:15;;;;;;;6.20;2.37;;;15.10;99.90;;;;;;5051934;28;20308;-75
2023/08/06 07:12:43;;;;;;;2.67;2.00;;;15.10;99.90;;;;;;5051492;28;20234;-78
2023/08/06 07:15:12;;;;;;;3.57;1.97;;;15.10;99.90;;;;;;5051988;28;20215;-79
2023/08/06 07:17:40;;;;;;;2.77;1.80;;;15.20;99.90;;;;;;5045782;28;20223;-79
2023/08/06 07:20:09;;;;;;;3.10;2.03;;;15.40;99.90;;;;;;5031971;28;20220;-76
2023/08/06 07:22:38;;;;;;;3.90;1.60;;;15.60;99.90;;;;;;5031739;28;20255;-77
2023/08/06 07:25:07;;;;;;;2.70;1.70;;;15.90;99.90;;;;;;5031934;28;20274;-78
2023/08/06 07:27:35;;;;;;;3.70;1.80;;;16.00;99.90;;;;;;5031689;28;20300;-78
2023/08/06 07:30:05;;;;;;;2.50;1.80;;;16.10;99.90;;;;;;5032023;28;20213;-79
2023/08/06 07:32:32;;;;;;;2.57;1.70;;;16.20;99.90;;;;;;5031497;28;20248;-76
2023/08/06 07:35:02;;;;;;;2.73;1.83;;;16.30;99.90;;;;;;5031708;28;20259;-78
2023/08/06 07:37:30;;;;;;;1.70;1.60;;;16.30;99.90;;;;;;5032007;28;20212;-76
2023/08/06 07:40:00;;;;;;;2.80;1.73;;;16.30;99.90;;;;;;5031837;28;20223;-78
2023/08/06 07:42:28;;;;;;;2.33;1.60;;;16.20;99.90;;;;;;5031428;28;20351;-78
2023/08/06 07:44:57;;;;;;;2.40;1.60;;;16.10;99.90;;;;;;5031967;28;20213;-79
2023/08/06 07:47:26;;;;;;;3.13;1.50;;;16.10;99.90;;;;;;5031627;28;20612;-77
2023/08/06 07:49:54;;;;;;;4.90;1.40;;;16.20;99.90;;;;;;5031589;28;20671;-76
2023/08/06 07:52:22;;;;;;;2.77;1.30;;;16.30;99.90;;;;;;5031426;28;20263;-76
2023/08/06 07:54:50;;;;;;;2.57;1.30;;;16.60;99.90;;;;;;5031534;28;20220;-77
2023/08/06 07:57:19;;;;;;;4.07;1.40;;;16.60;99.90;;;;;;5031449;28;20698;-76
2023/08/06 07:59:47;;;;;;;3.17;1.50;;;16.70;99.90;;;;;;5030925;28;20232;-76
2023/08/06 08:02:16;;;;;;;2.60;1.13;;;16.70;99.90;;;;;;5031371;28;20201;-76
2023/08/06 08:04:44;;;;;;;2.77;1.27;;;16.60;99.90;;;;;;5031522;28;20216;-79
2023/08/06 08:07:12;;;;;;;1.70;1.03;;;16.50;99.90;;;;;;5031233;28;20744;-79
2023/08/06 08:09:40;;;;;;;3.53;1.30;;;16.80;99.90;;;;;;5031518;28;20625;-76
2023/08/06 08:12:08;;;;;;;3.23;0.93;;;17.00;99.90;;;;;;5038440;28;20224;-76
2023/08/06 08:14:38;;;;;;;0.70;0.70;;;17.60;99.90;;;;;;5051522;28;20254;-76
2023/08/06 08:17:06;;;;;;;2.03;0.80;;;17.70;99.90;;;;;;5051532;28;20212;-75
2023/08/06 08:19:35;;;;;;;0.80;0.60;;;17.90;99.90;;;;;;5038297;28;20247;-78
2023/08/06 08:22:03;;;;;;;1.03;0.70;;;18.00;99.90;;;;;;5034690;28;20208;-76
2023/08/06 08:24:31;;;;;;;1.20;0.80;;;18.10;99.90;;;;;;5034802;28;20212;-77
2023/08/06 08:26:59;;;;;;;1.13;0.77;;;18.40;99.90;;;;;;5034969;28;20209;-75
2023/08/06 08:29:27;;;;;;;2.63;0.90;;;18.50;99.90;;;;;;5035049;28;20221;-78
2023/08/06 08:31:57;;;;;;;1.70;0.73;;;18.60;99.90;;;;;;5034273;28;20227;-78
2023/08/06 08:34:25;;;;;;;1.77;1.00;;;18.80;99.90;;;;;;5034826;28;20209;-78
2023/08/06 08:36:53;;;;;;;1.57;1.13;;;18.90;99.90;;;;;;5034593;28;20213;-76
2023/08/06 08:39:21;;;;;;;2.23;0.80;;;19.00;99.90;;;;;;5034293;28;20631;-77
2023/08/06 08:41:49;;;;;;;1.23;0.80;;;19.10;99.90;;;;;;5034211;28;20201;-76
2023/08/06 08:44:18;;;;;;;2.20;0.90;;;19.30;99.90;;;;;;5034550;28;20570;-75
2023/08/06 08:46:49;;;;;;;2.57;1.10;;;19.10;99.90;;;;;;5034284;28;20655;-77
2023/08/06 08:49:19;;;;;;;2.23;0.80;;;19.10;99.90;;;;;;5034668;28;20216;-75
2023/08/06 08:51:47;;;;;;;1.40;0.90;;;19.60;99.90;;;;;;5034688;28;20220;-77
2023/08/06 08:54:17;;;;;;;2.60;0.83;;;20.10;99.90;;;;;;5034735;28;20271;-76
2023/08/06 08:56:45;;;;;;;1.30;1.00;;;19.70;99.90;;;;;;5034462;28;20209;-77
2023/08/06 08:59:13;;;;;;;1.77;0.90;;;18.90;99.90;;;;;;5034422;28;20322;-76
2023/08/06 09:01:45;;;;;;;1.90;0.83;;;18.90;99.90;;;;;;5034622;28;20573;-77
2023/08/06 09:04:13;;;;;;;2.03;1.00;;;18.60;99.90;;;;;;5034089;28;20316;-77
2023/08/06 09:06:44;;;;;;;0.70;0.70;;;18.60;99.90;;;;;;5034092;28;20216;-76
2023/08/06 09:09:16;;;;;;;2.20;0.80;;;18.90;99.90;;;;;;5034328;28;20205;-77
2023/08/06 09:11:48;;;;;;;0.87;0.77;;;20.10;99.90;;;;;;5041050;28;20377;-75
2023/08/06 09:14:16;;;;;;;2.37;0.90;;;20.20;99.90;;;;;;5034430;28;20205;-78
2023/08/06 09:16:45;;;;;;;1.33;0.70;;;19.70;99.90;;;;;;5033876;28;20340;-80
2023/08/06 09:19:15;;;;;;;2.40;0.70;;;19.30;99.90;;;;;;5034178;28;20235;-75
2023/08/06 09:21:48;;;;;;;0.87;0.70;;;19.10;99.90;;;;;;5033846;28;20208;-77
2023/08/06 09:24:16;;;;;;;1.77;0.90;;;19.10;99.90;;;;;;5034093;28;20224;-76
2023/08/06 09:26:45;;;;;;;2.03;0.87;;;19.00;99.90;;;;;;5034253;28;20240;-77
2023/08/06 09:29:14;;;;;;;2.53;0.80;;;18.90;99.90;;;;;;5038680;28;20262;-77
2023/08/06 09:31:44;;;;;;;1.73;0.70;;;18.60;99.90;;;;;;5053104;28;20265;-76
2023/08/06 09:34:13;;;;;;;4.97;0.80;;;18.30;99.90;;;;;;5053647;28;20232;-77
2023/08/06 09:36:43;;;;;;;2.97;0.80;;;17.90;99.90;;;;;;5048759;28;20241;-78
2023/08/06 09:39:16;;;;;;;1.37;0.90;;;17.60;99.90;;;;;;5033886;28;20259;-77
2023/08/06 09:41:44;;;;;;;1.77;0.80;;;17.40;99.90;;;;;;5033483;28;20213;-78
2023/08/06 09:44:19;;;;;;;4.83;0.70;;;17.00;99.90;;;;;;5033211;28;20215;-75
2023/08/06 09:46:49;;;;;;;0.50;0.50;;;16.80;99.90;;;;;;5033624;28;20274;-80
2023/08/06 09:49:19;;;;;;;2.10;0.60;;;16.40;99.90;;;;;;5033775;28;20243;-77
2023/08/06 09:51:55;;;;;;;2.43;0.70;;;16.60;99.90;;;;;;5033170;28;20209;-76
2023/08/06 09:54:26;;;;;;;1.30;0.53;;;16.70;99.90;;;;;;5033343;28;20675;-76
2023/08/06 09:56:55;;;;;;;0.70;0.43;;;17.10;99.90;;;;;;5033017;28;20611;-75
2023/08/06 09:59:25;;;;;;;0.70;0.57;;;17.10;99.90;;;;;;5033599;28;20324;-76
2023/08/06 10:01:55;;;;;;;2.87;0.70;;;16.70;99.90;;;;;;5032518;28;20240;-78
2023/08/06 10:04:24;;;;;;;0.93;0.50;;;16.40;99.90;;;;;;5033124;28;20255;-76
2023/08/06 10:07:02;;;;;;;1.73;0.50;;;16.20;99.90;;;;;;5032934;28;20227;-76
2023/08/06 10:09:31;;;;;;;0.93;0.40;;;16.00;99.90;;;;;;5038329;28;20682;-76
2023/08/06 10:12:00;;;;;;;0.73;0.40;;;15.80;99.90;;;;;;5032626;28;20255;-75
2023/08/06 10:14:34;;;;;;;1.70;0.50;;;15.70;99.90;;;;;;5032922;28;20233;-76
2023/08/06 10:17:02;;;;;;;0.70;0.40;;;15.50;99.90;;;;;;5032749;28;20219;-77
2023/08/06 10:19:32;;;;;;;0.47;0.40;;;15.30;99.90;;;;;;5033243;28;20216;-79
2023/08/06 10:22:12;;;;;;;2.63;0.63;;;15.40;99.90;;;;;;5032932;28;20211;-77
2023/08/06 10:24:48;;;;;;;1.37;0.30;;;15.30;99.90;;;;;;5033232;28;20197;-75
2023/08/06 10:27:30;;;;;;;3.17;0.53;;;15.30;99.90;;;;;;5032559;28;20733;-76
2023/08/06 10:30:26;;;;;;;1.30;0.50;;;15.10;99.90;;;;;;5032551;28;20204;-78
2023/08/06 10:32:57;;;;;;;0.40;0.20;;;15.10;99.90;;;;;;5032470;28;20290;-75
2023/08/06 10:35:35;;;;;;;2.83;0.50;;;15.10;99.90;;;;;;5032780;28;20194;-77
2023/08/06 10:38:10;;;;;;;0.97;0.40;;;15.10;99.90;;;;;;5032763;28;20618;-77
2023/08/06 10:40:40;;;;;;;0.63;0.40;;;15.40;99.90;;;;;;5032509;28;20250;-77
2023/08/06 10:43:10;;;;;;;1.60;0.30;;;15.60;99.90;;;;;;5031129;28;20230;-75
2023/08/06 10:45:39;;;;;;;2.67;0.63;;;15.70;99.90;;;;;;5032906;28;20304;-76
2023/08/06 10:48:07;;;;;;;1.07;0.40;;;15.90;99.90;;;;;;5045586;28;20200;-78
2023/08/06 10:50:36;;;;;;;1.40;0.30;;;16.70;99.90;;;;;;5052522;28;20212;-75
2023/08/06 10:53:06;;;;;;;0.70;0.40;;;17.00;99.90;;;;;;5052549;28;20224;-77
2023/08/06 10:55:38;;;;;;;1.80;0.30;;;17.00;99.90;;;;;;5046882;28;20217;-76
2023/08/06 10:58:06;;;;;;;0.93;0.40;;;16.90;99.90;;;;;;5034300;28;20240;-74
2023/08/06 11:00:34;;;;;;;0.90;0.43;;;16.90;99.90;;;;;;5035189;28;20208;-78
2023/08/06 11:03:05;;;;;;;1.23;0.60;;;17.30;99.90;;;;;;5033901;28;20291;-77
2023/08/06 11:05:33;;;;;;;1.43;0.33;;;17.70;99.90;;;;;;5047519;28;20230;-77
2023/08/06 11:08:02;;;;;;;4.47;0.40;;;18.60;99.90;;;;;;5053530;28;20219;-78
2023/08/06 11:10:30;;;;;;;2.77;0.40;;;19.10;99.90;;;;;;5054092;28;20211;-77
2023/08/06 11:13:04;;;;;;;0.37;0.30;;;19.10;99.90;;;;;;5039314;28;20236;-75
2023/08/06 11:15:33;;;;;;;0.23;0.20;;;19.00;99.90;;;;;;5034045;28;20269;-75
2023/08/06 11:18:02;;;;;;;0.67;0.40;;;18.80;99.90;;;;;;5034489;28;20220;-76
2023/08/06 11:20:30;;;;;;;4.00;0.50;;;18.30;99.90;;;;;;5034069;28;20297;-75
2023/08/06 11:22:59;;;;;;;1.30;0.60;;;17.90;99.90;;;;;;5031808;28;20659;-77
2023/08/06 11:25:27;;;;;;;2.17;0.60;;;17.50;99.90;;;;;;5033469;28;20278;-77
2023/08/06 11:27:55;;;;;;;2.33;0.40;;;17.10;99.90;;;;;;5034332;28;20204;-78
2023/08/06 11:30:25;;;;;;;1.30;0.60;;;16.80;99.90;;;;;;5038431;28;20208;-75
2023/08/06 11:32:56;;;;;;;2.60;0.40;;;16.70;99.90;;;;;;5047950;28;20260;-76
2023/08/06 11:35:29;;;;;;;0.80;0.40;;;16.50;99.90;;;;;;5051638;28;20209;-75
2023/08/06 11:37:58;;;;;;;0.43;0.40;;;16.40;99.90;;;;;;5051099;28;20204;-76
2023/08/06 11:40:26;;;;;;;0.20;0.20;;;16.20;99.90;;;;;;5045159;28;20209;-77
2023/08/06 11:42:54;;;;;;;0.63;0.20;;;16.10;99.90;;;;;;5039348;28;20205;-81
2023/08/06 11:45:24;;;;;;;2.50;0.40;;;15.80;99.90;;;;;;5041437;28;20212;-75
2023/08/06 11:47:53;;;;;;;1.43;0.20;;;15.70;99.90;;;;;;5039853;28;20208;-79
2023/08/06 11:50:25;;;;;;;0.20;0.20;;;15.90;99.90;;;;;;5038739;28;20291;-82
2023/08/06 11:52:58;;;;;;;1.50;0.40;;;16.20;99.90;;;;;;5047529;28;20311;-76
2023/08/06 11:55:28;;;;;;;1.17;0.27;;;16.40;99.90;;;;;;5066735;28;20219;-75
2023/08/06 11:57:57;;;;;;;0.43;0.20;;;16.40;99.90;;;;;;5072670;28;20224;-76
2023/08/06 12:00:27;;;;;;;2.10;0.20;;;16.40;99.90;;;;;;5075715;28;20304;-75
2023/08/06 12:02:55;;;;;;;0.40;0.17;;;16.30;99.90;;;;;;5061818;28;20205;-73
2023/08/06 12:05:25;;;;;;;1.17;0.20;;;16.60;99.90;;;;;;5054179;28;20209;-77
2023/08/06 12:07:56;;;;;;;0.60;0.43;;;17.00;99.90;;;;;;5071199;28;20705;-76
2023/08/06 12:10:26;;;;;;;0.83;0.37;;;17.00;99.90;;;;;;5064564;28;20653;-78
2023/08/06 12:12:55;;;;;;;0.90;0.27;;;17.20;99.90;;;;;;5052752;28;20367;-75
2023/08/06 12:15:24;;;;;;;0.10;0.10;;;17.40;99.90;;;;;;5052834;28;20237;-74
2023/08/06 12:17:53;;;;;;;0.23;0.23;;;17.60;99.90;;;;;;5049377;28;20607;-73
2023/08/06 12:20:21;;;;;;;1.17;0.30;;;17.60;99.90;;;;;;5058214;28;20204;-75
2023/08/06 12:22:50;;;;;;;0.20;0.10;;;17.60;99.90;;;;;;5073843;28;20208;-76
2023/08/06 12:25:20;;;;;;;0.40;0.20;;;17.50;99.90;;;;;;5072798;28;20208;-74
2023/08/06 12:27:48;;;;;;;1.23;0.30;;;17.30;99.90;;;;;;5073535;28;20223;-77
2023/08/06 12:30:18;;;;;;;2.23;0.40;;;17.10;99.90;;;;;;5059235;28;20208;-75
2023/08/06 12:32:46;;;;;;;2.23;0.20;;;17.20;99.90;;;;;;5054516;28;20731;-75
2023/08/06 12:35:16;;;;;;;0.80;0.20;;;17.00;99.90;;;;;;5052732;28;20224;-75
2023/08/06 12:37:45;;;;;;;1.43;0.23;;;16.90;99.90;;;;;;5054197;28;20209;-75
2023/08/06 12:40:13;;;;;;;0.30;0.20;;;17.10;99.90;;;;;;5056042;28;20209;-76
2023/08/06 12:43:01;;;;;;;1.97;0.20;;;17.30;99.90;;;;;;5051619;28;20276;-76
2023/08/06 12:45:29;;;;;;;0.37;0.37;;;17.60;99.90;;;;;;5043972;28;20209;-77
2023/08/06 12:47:57;;;;;;;0.20;0.20;;;17.40;99.90;;;;;;5044449;28;20213;-76
2023/08/06 12:50:27;;;;;;;0.60;0.40;;;17.50;99.90;;;;;;5052479;28;20224;-76
2023/08/06 12:52:55;;;;;;;2.77;0.30;;;17.40;99.90;;;;;;5052535;28;20216;-77
2023/08/06 12:55:23;;;;;;;0.43;0.37;;;17.40;99.90;;;;;;5049932;28;20259;-77